Big D — ZDDR2 — position and weather

sailwx.info

Track history (hours):
 
Tides and Currents Weather Stations Pressure Air Temp Water Temp Dewpoint Dewpoint Depression Visibility Wind Speed Wind Dir Waves Ship Positions

Big D

Last reported at 2015-Jul-04 21:33 UTC. Time now 2015-Jul-04 22:27 UTC.
Position N 38°46' E 001°26'.

Length 45 m; draft 2.5 m.

Type: Pleasure craft. MMSI: 236052000.

Date/timePositionNaut miles runAvg speedWind from/ knotsBaromVisibWave heightAir tempDewpointWater temp
2015-Jul-04 21:33N 38°46' E 001°26'0 0.0
2015-Jul-04 20:33N 38°46' E 001°26'0 0.0
2015-Jul-04 19:33N 38°46' E 001°26'0 0.0
2015-Jul-04 18:33N 38°46' E 001°26'0 0.0
2015-Jul-04 17:33N 38°46' E 001°26'0 0.0
2015-Jul-04 16:33N 38°46' E 001°26'0 0.0
2015-Jul-04 15:33N 38°46' E 001°26'0 0.0
2015-Jul-04 14:33N 38°46' E 001°26'0 0.0
2015-Jul-04 13:33N 38°46' E 001°26'0 0.0
2015-Jul-04 12:33N 38°46' E 001°26'0 0.0
2015-Jul-04 11:33N 38°46' E 001°26'0 0.0
2015-Jul-04 10:33N 38°46' E 001°26'6 6.0
2015-Jul-04 09:32N 38°52' E 001°26'10 0.2
2015-Jul-02 09:33N 38°58' E 001°35'1010.0
2015-Jul-02 08:33N 39°07' E 001°42'1010.4
2015-Jul-02 07:33N 39°14' E 001°52'1010.2
2015-Jul-02 06:33N 39°20' E 002°02'9 9.1
2015-Jul-02 05:33N 39°26' E 002°11'8 7.7
2015-Jul-02 04:33N 39°31' E 002°19'3 2.4
2015-Jul-02 03:20N 39°32' E 002°22'0 0.0
2015-Jul-02 02:13N 39°32' E 002°22'0 0.0
2015-Jul-02 01:26N 39°32' E 002°22'0 0.0
2015-Jul-02 00:08N 39°32' E 002°22'0 0.0
2015-Jul-01 21:25N 39°32' E 002°22'0 0.0
2015-Jul-01 20:32N 39°32' E 002°22'0 0.0
2015-Jul-01 18:26N 39°32' E 002°22'0 0.0
2015-Jul-01 17:07N 39°32' E 002°22'2 2.7
2015-Jul-01 16:32N 39°31' E 002°23'5 0.9
2015-Jul-01 11:18N 39°28' E 002°29'4 5.5
2015-Jul-01 10:33N 39°29' E 002°34'6 6.4
2015-Jul-01 09:33N 39°34' E 002°39'0 0.0
2015-Jul-01 08:33N 39°34' E 002°39'0 0.0
2015-Jul-01 07:33N 39°34' E 002°39'0 0.0
2015-Jul-01 06:33N 39°34' E 002°39'0 0.0
2015-Jul-01 05:33N 39°34' E 002°39'0 0.0
2015-Jul-01 04:33N 39°34' E 002°39'0 0.0
2015-Jul-01 03:33N 39°34' E 002°39'0 0.0
2015-Jul-01 02:33N 39°34' E 002°39'0 0.0
2015-Jul-01 01:33N 39°34' E 002°39'0 0.0
2015-Jul-01 00:21N 39°34' E 002°39'0 0.0
2015-Jun-30 23:33N 39°34' E 002°39'0 0.0
2015-Jun-30 22:18N 39°34' E 002°39'0 0.0
2015-Jun-30 21:33N 39°34' E 002°39'0 0.0
2015-Jun-30 20:33N 39°34' E 002°39'0 0.0
2015-Jun-30 19:33N 39°34' E 002°39'0 0.0
2015-Jun-30 18:27N 39°34' E 002°39'0 0.0
2015-Jun-30 17:33N 39°34' E 002°39'0 0.0
2015-Jun-30 16:33N 39°34' E 002°39'0 0.0
2015-Jun-30 15:33N 39°34' E 002°39'0 0.0
2015-Jun-30 14:33N 39°34' E 002°39'0 0.0
2015-Jun-30 13:33N 39°34' E 002°39'0 0.0
2015-Jun-30 12:30N 39°34' E 002°39'0 0.0
2015-Jun-30 11:30N 39°34' E 002°39'0 0.0
2015-Jun-30 10:24N 39°34' E 002°39'0 0.0
2015-Jun-30 09:33N 39°34' E 002°39'0 0.0
2015-Jun-30 08:33N 39°34' E 002°39'0 0.0
2015-Jun-30 07:33N 39°34' E 002°39'0 0.0
2015-Jun-30 06:33N 39°34' E 002°39'0 0.0
2015-Jun-30 05:33N 39°34' E 002°39'0 0.0
2015-Jun-30 04:33N 39°34' E 002°39'0 0.0
2015-Jun-30 03:33N 39°34' E 002°39'0 0.0
2015-Jun-30 02:30N 39°34' E 002°39'0 0.0
2015-Jun-30 01:30N 39°34' E 002°39'0 0.0
2015-Jun-30 00:21N 39°34' E 002°39'0 0.0
2015-Jun-29 23:27N 39°34' E 002°39'0 0.0
2015-Jun-29 22:30N 39°34' E 002°39'0 0.0
2015-Jun-29 21:33N 39°34' E 002°39'0 0.0
2015-Jun-29 20:33N 39°34' E 002°39'0 0.0
2015-Jun-29 19:27N 39°34' E 002°39'0 0.0
2015-Jun-29 18:33N 39°34' E 002°39'0 0.0
2015-Jun-29 17:33N 39°34' E 002°39'0 0.0
2015-Jun-29 16:30N 39°34' E 002°39'0 0.0
2015-Jun-29 15:33N 39°34' E 002°39'0 0.0
2015-Jun-29 14:33N 39°34' E 002°39'0 0.0
2015-Jun-29 13:27N 39°34' E 002°39'0 0.0
2015-Jun-29 12:27N 39°34' E 002°39'0 0.0
2015-Jun-29 11:33N 39°34' E 002°39'0 0.0
2015-Jun-29 10:33N 39°34' E 002°39'0 0.0
2015-Jun-29 09:33N 39°34' E 002°39'0 0.0
2015-Jun-29 08:33N 39°34' E 002°39'0 0.0
2015-Jun-29 07:33N 39°34' E 002°39'0 0.0
2015-Jun-29 06:33N 39°34' E 002°39'0 0.0
2015-Jun-29 05:33N 39°34' E 002°39'0 0.0
2015-Jun-29 04:30N 39°34' E 002°39'0 0.0
2015-Jun-29 03:30N 39°34' E 002°39'0 0.0
2015-Jun-29 02:18N 39°34' E 002°39'0 0.0
2015-Jun-29 01:27N 39°34' E 002°39'0 0.0
2015-Jun-29 00:30N 39°34' E 002°39'0 0.0
2015-Jun-28 23:33N 39°34' E 002°39'0 0.0
2015-Jun-28 22:33N 39°34' E 002°39'0 0.0
2015-Jun-28 21:33N 39°34' E 002°39'0 0.0
2015-Jun-28 20:27N 39°34' E 002°39'0 0.0
2015-Jun-28 19:33N 39°34' E 002°39'0 0.0
2015-Jun-28 18:27N 39°34' E 002°39'0 0.0
2015-Jun-28 17:33N 39°34' E 002°39'0 0.0
2015-Jun-28 16:33N 39°34' E 002°39'0 0.0
2015-Jun-28 15:27N 39°34' E 002°39'0 0.0
2015-Jun-28 14:33N 39°34' E 002°39'0 0.0
2015-Jun-28 13:33N 39°34' E 002°39'0 0.0
2015-Jun-28 12:33N 39°34' E 002°39'0 0.0
2015-Jun-28 11:27N 39°34' E 002°39'0 0.0
2015-Jun-28 10:30N 39°34' E 002°39'0 0.0
2015-Jun-28 09:33N 39°34' E 002°39'0 0.0
2015-Jun-28 08:33N 39°34' E 002°39'0 0.0
2015-Jun-28 07:33N 39°34' E 002°39'0 0.0
2015-Jun-28 06:33N 39°34' E 002°39'0 0.0
2015-Jun-28 05:30N 39°34' E 002°39'0 0.0
2015-Jun-28 04:33N 39°34' E 002°39'0 0.0
2015-Jun-28 03:33N 39°34' E 002°39'0 0.0
2015-Jun-28 02:24N 39°34' E 002°39'0 0.0
2015-Jun-28 01:33N 39°34' E 002°39'0 0.0
2015-Jun-28 00:30N 39°34' E 002°39'0 0.0
2015-Jun-27 23:33N 39°34' E 002°39'0 0.0
2015-Jun-27 22:33N 39°34' E 002°39'0 0.0
2015-Jun-27 21:30N 39°34' E 002°39'0 0.0
2015-Jun-27 20:27N 39°34' E 002°39'0 0.0
2015-Jun-27 19:06N 39°34' E 002°39'0 0.0
2015-Jun-27 18:30N 39°34' E 002°39'0 0.0
2015-Jun-27 17:33N 39°34' E 002°39'0 0.0
2015-Jun-27 16:30N 39°34' E 002°39'0 0.0
2015-Jun-27 15:33N 39°34' E 002°39'0 0.0
2015-Jun-27 14:33N 39°34' E 002°39'0 0.0
2015-Jun-27 13:27N 39°34' E 002°39'0 0.0
2015-Jun-27 11:30N 39°34' E 002°39'0 0.0
2015-Jun-27 10:33N 39°34' E 002°39'0 0.0
2015-Jun-27 09:33N 39°34' E 002°39'0 0.0
2015-Jun-27 08:33N 39°34' E 002°39'0 0.0
2015-Jun-27 07:33N 39°34' E 002°39'0 0.0
2015-Jun-27 06:30N 39°34' E 002°39'0 0.0
2015-Jun-27 05:33N 39°34' E 002°39'0 0.0
2015-Jun-27 04:30N 39°34' E 002°39'0 0.0
2015-Jun-27 03:33N 39°34' E 002°39'0 0.0
2015-Jun-27 02:27N 39°34' E 002°39'0 0.0
2015-Jun-27 01:33N 39°34' E 002°39'0 0.0
2015-Jun-27 00:30N 39°34' E 002°39'0 0.0
2015-Jun-26 23:33N 39°34' E 002°39'0 0.0
2015-Jun-26 22:27N 39°34' E 002°39'0 0.0
2015-Jun-26 21:30N 39°34' E 002°39'0 0.0
2015-Jun-26 20:30N 39°34' E 002°39'0 0.0
2015-Jun-26 19:27N 39°34' E 002°39'0 0.0
2015-Jun-26 18:33N 39°34' E 002°39'0 0.0
2015-Jun-26 17:30N 39°34' E 002°39'0 0.0
2015-Jun-26 16:21N 39°34' E 002°39'0 0.0
2015-Jun-26 15:33N 39°34' E 002°39'0 0.0
2015-Jun-26 14:33N 39°34' E 002°39'0 0.0
2015-Jun-26 13:33N 39°34' E 002°39'0 0.0
2015-Jun-26 12:33N 39°34' E 002°39'0 0.0
2015-Jun-26 11:33N 39°34' E 002°39'0 0.0
2015-Jun-26 10:27N 39°34' E 002°39'0 0.0
2015-Jun-26 09:27N 39°34' E 002°39'0 0.0
2015-Jun-26 08:27N 39°34' E 002°39'0 0.0
2015-Jun-26 07:27N 39°34' E 002°39'0 0.0
2015-Jun-26 06:27N 39°34' E 002°39'0 0.0
2015-Jun-26 05:33N 39°34' E 002°39'0 0.0
2015-Jun-26 04:33N 39°34' E 002°39'0 0.0
2015-Jun-26 03:33N 39°34' E 002°39'0 0.0
2015-Jun-26 02:27N 39°34' E 002°39'0 0.0
2015-Jun-26 01:27N 39°34' E 002°39'0 0.0
2015-Jun-26 00:33N 39°34' E 002°39'0 0.0
2015-Jun-25 23:33N 39°34' E 002°39'0 0.0
2015-Jun-25 22:30N 39°34' E 002°39'0 0.0
2015-Jun-25 21:33N 39°34' E 002°39'0 0.0
2015-Jun-25 20:33N 39°34' E 002°39'0 0.0
2015-Jun-25 19:33N 39°34' E 002°39'0 0.0
2015-Jun-25 18:33N 39°34' E 002°39'0 0.0
2015-Jun-25 17:33N 39°34' E 002°39'0 0.0
2015-Jun-25 16:33N 39°34' E 002°39'0 0.0
2015-Jun-25 15:33N 39°34' E 002°39'0 0.0
2015-Jun-25 14:33N 39°34' E 002°39'0 0.0
2015-Jun-25 13:33N 39°34' E 002°39'0 0.0
2015-Jun-25 12:33N 39°34' E 002°39'0 0.0
2015-Jun-25 11:33N 39°34' E 002°39'0 0.0
2015-Jun-25 10:27N 39°34' E 002°39'0 0.0
2015-Jun-25 09:30N 39°34' E 002°39'0 0.0
2015-Jun-25 08:33N 39°34' E 002°39'0 0.0
2015-Jun-25 07:33N 39°34' E 002°39'0 0.0
2015-Jun-25 06:33N 39°34' E 002°39'0 0.0
2015-Jun-25 05:33N 39°34' E 002°39'0 0.0
2015-Jun-25 04:30N 39°34' E 002°39'0 0.0
2015-Jun-25 03:33N 39°34' E 002°39'0 0.0
2015-Jun-25 02:33N 39°34' E 002°39'0 0.0
2015-Jun-25 01:30N 39°34' E 002°39'0 0.0
2015-Jun-25 00:33N 39°34' E 002°39'0 0.0
2015-Jun-24 23:33N 39°34' E 002°39'0 0.0
2015-Jun-24 22:33N 39°34' E 002°39'  
Track history (hours):
 
Tides and Currents Weather Stations Pressure Air Temp Water Temp Dewpoint Dewpoint Depression Visibility Wind Speed Wind Dir Waves Ship Positions

Big D

Last reported at 2015-Jul-04 21:33 UTC. Time now 2015-Jul-04 22:27 UTC.
Position N 38°46' E 001°26'.

Length 45 m; draft 2.5 m.

Type: Pleasure craft. MMSI: 236052000.

Date/timePositionNaut miles runAvg speedWind from/ knotsBaromVisibWave heightAir tempDewpointWater temp
2015-Jul-04 21:33N 38°46' E 001°26'0 0.0
2015-Jul-04 20:33N 38°46' E 001°26'0 0.0
2015-Jul-04 19:33N 38°46' E 001°26'0 0.0
2015-Jul-04 18:33N 38°46' E 001°26'0 0.0
2015-Jul-04 17:33N 38°46' E 001°26'0 0.0
2015-Jul-04 16:33N 38°46' E 001°26'0 0.0
2015-Jul-04 15:33N 38°46' E 001°26'0 0.0
2015-Jul-04 14:33N 38°46' E 001°26'0 0.0
2015-Jul-04 13:33N 38°46' E 001°26'0 0.0
2015-Jul-04 12:33N 38°46' E 001°26'0 0.0
2015-Jul-04 11:33N 38°46' E 001°26'0 0.0
2015-Jul-04 10:33N 38°46' E 001°26'6 6.0
2015-Jul-04 09:32N 38°52' E 001°26'10 0.2
2015-Jul-02 09:33N 38°58' E 001°35'1010.0
2015-Jul-02 08:33N 39°07' E 001°42'1010.4
2015-Jul-02 07:33N 39°14' E 001°52'1010.2
2015-Jul-02 06:33N 39°20' E 002°02'9 9.1
2015-Jul-02 05:33N 39°26' E 002°11'8 7.7
2015-Jul-02 04:33N 39°31' E 002°19'3 2.4
2015-Jul-02 03:20N 39°32' E 002°22'0 0.0
2015-Jul-02 02:13N 39°32' E 002°22'0 0.0
2015-Jul-02 01:26N 39°32' E 002°22'0 0.0
2015-Jul-02 00:08N 39°32' E 002°22'0 0.0
2015-Jul-01 21:25N 39°32' E 002°22'0 0.0
2015-Jul-01 20:32N 39°32' E 002°22'0 0.0
2015-Jul-01 18:26N 39°32' E 002°22'0 0.0
2015-Jul-01 17:07N 39°32' E 002°22'2 2.7
2015-Jul-01 16:32N 39°31' E 002°23'5 0.9
2015-Jul-01 11:18N 39°28' E 002°29'4 5.5
2015-Jul-01 10:33N 39°29' E 002°34'6 6.4
2015-Jul-01 09:33N 39°34' E 002°39'0 0.0
2015-Jul-01 08:33N 39°34' E 002°39'0 0.0
2015-Jul-01 07:33N 39°34' E 002°39'0 0.0
2015-Jul-01 06:33N 39°34' E 002°39'0 0.0
2015-Jul-01 05:33N 39°34' E 002°39'0 0.0
2015-Jul-01 04:33N 39°34' E 002°39'0 0.0
2015-Jul-01 03:33N 39°34' E 002°39'0 0.0
2015-Jul-01 02:33N 39°34' E 002°39'0 0.0
2015-Jul-01 01:33N 39°34' E 002°39'0 0.0
2015-Jul-01 00:21N 39°34' E 002°39'0 0.0
2015-Jun-30 23:33N 39°34' E 002°39'0 0.0
2015-Jun-30 22:18N 39°34' E 002°39'0 0.0
2015-Jun-30 21:33N 39°34' E 002°39'0 0.0
2015-Jun-30 20:33N 39°34' E 002°39'0 0.0
2015-Jun-30 19:33N 39°34' E 002°39'0 0.0
2015-Jun-30 18:27N 39°34' E 002°39'0 0.0
2015-Jun-30 17:33N 39°34' E 002°39'0 0.0
2015-Jun-30 16:33N 39°34' E 002°39'0 0.0
2015-Jun-30 15:33N 39°34' E 002°39'0 0.0
2015-Jun-30 14:33N 39°34' E 002°39'0 0.0
2015-Jun-30 13:33N 39°34' E 002°39'0 0.0
2015-Jun-30 12:30N 39°34' E 002°39'0 0.0
2015-Jun-30 11:30N 39°34' E 002°39'0 0.0
2015-Jun-30 10:24N 39°34' E 002°39'0 0.0
2015-Jun-30 09:33N 39°34' E 002°39'0 0.0
2015-Jun-30 08:33N 39°34' E 002°39'0 0.0
2015-Jun-30 07:33N 39°34' E 002°39'0 0.0
2015-Jun-30 06:33N 39°34' E 002°39'0 0.0
2015-Jun-30 05:33N 39°34' E 002°39'0 0.0
2015-Jun-30 04:33N 39°34' E 002°39'0 0.0
2015-Jun-30 03:33N 39°34' E 002°39'0 0.0
2015-Jun-30 02:30N 39°34' E 002°39'0 0.0
2015-Jun-30 01:30N 39°34' E 002°39'0 0.0
2015-Jun-30 00:21N 39°34' E 002°39'0 0.0
2015-Jun-29 23:27N 39°34' E 002°39'0 0.0
2015-Jun-29 22:30N 39°34' E 002°39'0 0.0
2015-Jun-29 21:33N 39°34' E 002°39'0 0.0
2015-Jun-29 20:33N 39°34' E 002°39'0 0.0
2015-Jun-29 19:27N 39°34' E 002°39'0 0.0
2015-Jun-29 18:33N 39°34' E 002°39'0 0.0
2015-Jun-29 17:33N 39°34' E 002°39'0 0.0
2015-Jun-29 16:30N 39°34' E 002°39'0 0.0
2015-Jun-29 15:33N 39°34' E 002°39'0 0.0
2015-Jun-29 14:33N 39°34' E 002°39'0 0.0
2015-Jun-29 13:27N 39°34' E 002°39'0 0.0
2015-Jun-29 12:27N 39°34' E 002°39'0 0.0
2015-Jun-29 11:33N 39°34' E 002°39'0 0.0
2015-Jun-29 10:33N 39°34' E 002°39'0 0.0
2015-Jun-29 09:33N 39°34' E 002°39'0 0.0
2015-Jun-29 08:33N 39°34' E 002°39'0 0.0
2015-Jun-29 07:33N 39°34' E 002°39'0 0.0
2015-Jun-29 06:33N 39°34' E 002°39'0 0.0
2015-Jun-29 05:33N 39°34' E 002°39'0 0.0
2015-Jun-29 04:30N 39°34' E 002°39'0 0.0
2015-Jun-29 03:30N 39°34' E 002°39'0 0.0
2015-Jun-29 02:18N 39°34' E 002°39'0 0.0
2015-Jun-29 01:27N 39°34' E 002°39'0 0.0
2015-Jun-29 00:30N 39°34' E 002°39'0 0.0
2015-Jun-28 23:33N 39°34' E 002°39'0 0.0
2015-Jun-28 22:33N 39°34' E 002°39'0 0.0
2015-Jun-28 21:33N 39°34' E 002°39'0 0.0
2015-Jun-28 20:27N 39°34' E 002°39'0 0.0
2015-Jun-28 19:33N 39°34' E 002°39'0 0.0
2015-Jun-28 18:27N 39°34' E 002°39'0 0.0
2015-Jun-28 17:33N 39°34' E 002°39'0 0.0
2015-Jun-28 16:33N 39°34' E 002°39'0 0.0
2015-Jun-28 15:27N 39°34' E 002°39'0 0.0
2015-Jun-28 14:33N 39°34' E 002°39'0 0.0
2015-Jun-28 13:33N 39°34' E 002°39'0 0.0
2015-Jun-28 12:33N 39°34' E 002°39'0 0.0
2015-Jun-28 11:27N 39°34' E 002°39'0 0.0
2015-Jun-28 10:30N 39°34' E 002°39'0 0.0
2015-Jun-28 09:33N 39°34' E 002°39'0 0.0
2015-Jun-28 08:33N 39°34' E 002°39'0 0.0
2015-Jun-28 07:33N 39°34' E 002°39'0 0.0
2015-Jun-28 06:33N 39°34' E 002°39'0 0.0
2015-Jun-28 05:30N 39°34' E 002°39'0 0.0
2015-Jun-28 04:33N 39°34' E 002°39'0 0.0
2015-Jun-28 03:33N 39°34' E 002°39'0 0.0
2015-Jun-28 02:24N 39°34' E 002°39'0 0.0
2015-Jun-28 01:33N 39°34' E 002°39'0 0.0
2015-Jun-28 00:30N 39°34' E 002°39'0 0.0
2015-Jun-27 23:33N 39°34' E 002°39'0 0.0
2015-Jun-27 22:33N 39°34' E 002°39'0 0.0
2015-Jun-27 21:30N 39°34' E 002°39'0 0.0
2015-Jun-27 20:27N 39°34' E 002°39'0 0.0
2015-Jun-27 19:06N 39°34' E 002°39'0 0.0
2015-Jun-27 18:30N 39°34' E 002°39'0 0.0
2015-Jun-27 17:33N 39°34' E 002°39'0 0.0
2015-Jun-27 16:30N 39°34' E 002°39'0 0.0
2015-Jun-27 15:33N 39°34' E 002°39'0 0.0
2015-Jun-27 14:33N 39°34' E 002°39'0 0.0
2015-Jun-27 13:27N 39°34' E 002°39'0 0.0
2015-Jun-27 11:30N 39°34' E 002°39'0 0.0
2015-Jun-27 10:33N 39°34' E 002°39'0 0.0
2015-Jun-27 09:33N 39°34' E 002°39'0 0.0
2015-Jun-27 08:33N 39°34' E 002°39'0 0.0
2015-Jun-27 07:33N 39°34' E 002°39'0 0.0
2015-Jun-27 06:30N 39°34' E 002°39'0 0.0
2015-Jun-27 05:33N 39°34' E 002°39'0 0.0
2015-Jun-27 04:30N 39°34' E 002°39'0 0.0
2015-Jun-27 03:33N 39°34' E 002°39'0 0.0
2015-Jun-27 02:27N 39°34' E 002°39'0 0.0
2015-Jun-27 01:33N 39°34' E 002°39'0 0.0
2015-Jun-27 00:30N 39°34' E 002°39'0 0.0
2015-Jun-26 23:33N 39°34' E 002°39'0 0.0
2015-Jun-26 22:27N 39°34' E 002°39'0 0.0
2015-Jun-26 21:30N 39°34' E 002°39'0 0.0
2015-Jun-26 20:30N 39°34' E 002°39'0 0.0
2015-Jun-26 19:27N 39°34' E 002°39'0 0.0
2015-Jun-26 18:33N 39°34' E 002°39'0 0.0
2015-Jun-26 17:30N 39°34' E 002°39'0 0.0
2015-Jun-26 16:21N 39°34' E 002°39'0 0.0
2015-Jun-26 15:33N 39°34' E 002°39'0 0.0
2015-Jun-26 14:33N 39°34' E 002°39'0 0.0
2015-Jun-26 13:33N 39°34' E 002°39'0 0.0
2015-Jun-26 12:33N 39°34' E 002°39'0 0.0
2015-Jun-26 11:33N 39°34' E 002°39'0 0.0
2015-Jun-26 10:27N 39°34' E 002°39'0 0.0
2015-Jun-26 09:27N 39°34' E 002°39'0 0.0
2015-Jun-26 08:27N 39°34' E 002°39'0 0.0
2015-Jun-26 07:27N 39°34' E 002°39'0 0.0
2015-Jun-26 06:27N 39°34' E 002°39'0 0.0
2015-Jun-26 05:33N 39°34' E 002°39'0 0.0
2015-Jun-26 04:33N 39°34' E 002°39'0 0.0
2015-Jun-26 03:33N 39°34' E 002°39'0 0.0
2015-Jun-26 02:27N 39°34' E 002°39'0 0.0
2015-Jun-26 01:27N 39°34' E 002°39'0 0.0
2015-Jun-26 00:33N 39°34' E 002°39'0 0.0
2015-Jun-25 23:33N 39°34' E 002°39'0 0.0
2015-Jun-25 22:30N 39°34' E 002°39'0 0.0
2015-Jun-25 21:33N 39°34' E 002°39'0 0.0
2015-Jun-25 20:33N 39°34' E 002°39'0 0.0
2015-Jun-25 19:33N 39°34' E 002°39'0 0.0
2015-Jun-25 18:33N 39°34' E 002°39'0 0.0
2015-Jun-25 17:33N 39°34' E 002°39'0 0.0
2015-Jun-25 16:33N 39°34' E 002°39'0 0.0
2015-Jun-25 15:33N 39°34' E 002°39'0 0.0
2015-Jun-25 14:33N 39°34' E 002°39'0 0.0
2015-Jun-25 13:33N 39°34' E 002°39'0 0.0
2015-Jun-25 12:33N 39°34' E 002°39'0 0.0
2015-Jun-25 11:33N 39°34' E 002°39'0 0.0
2015-Jun-25 10:27N 39°34' E 002°39'0 0.0
2015-Jun-25 09:30N 39°34' E 002°39'0 0.0
2015-Jun-25 08:33N 39°34' E 002°39'0 0.0
2015-Jun-25 07:33N 39°34' E 002°39'0 0.0
2015-Jun-25 06:33N 39°34' E 002°39'0 0.0
2015-Jun-25 05:33N 39°34' E 002°39'0 0.0
2015-Jun-25 04:30N 39°34' E 002°39'0 0.0
2015-Jun-25 03:33N 39°34' E 002°39'0 0.0
2015-Jun-25 02:33N 39°34' E 002°39'0 0.0
2015-Jun-25 01:30N 39°34' E 002°39'0 0.0
2015-Jun-25 00:33N 39°34' E 002°39'0 0.0
2015-Jun-24 23:33N 39°34' E 002°39'0 0.0
2015-Jun-24 22:33N 39°34' E 002°39'  

Dump ship's entire track history